Laveen, Arizona
Current Conditions -  °F | °C
As of 5:51 PM on Monday 22 Dec 2014 (Local Time) from KPHX Reporting Station
Clear Clear  
Wind Chill: 63°   Ceiling: Unl
Heat Index: 63°   Visibility: 10mi
Dew Point: 43°   Wind: 3mph
Humidity: 48%   Direction: 240°WSW
Pressure: 29.89"   Gusts: NA
Location:  33.36°N, 112.17°W
Report Text: KPHX 230051Z 24003KT 10SM CLR 17/06 A2989 RMK AO2 SLP114 T01720061
Loading
Personal Weather Stations






























Interactive Weather Map New forecast layout! Learn more

10-Day Weather Forecast

Advertisements
Track Severe Weather on mobile